Scarborough, Trinidad And Tobago

2:02 PM AST on October 23, 2014 (GMT -0400)
Crown Point | Change Station
CLOSE
Current Station
Airport
Location: Scarborough,
Elevation: 26 ft
Nearby Weather Stations

Elev 26 ft 11.15 °N, 60.84 °W | Updated 1 hour ago

Partly Cloudy
Partly Cloudy
77 °F
Feels Like 77 °F
N
16
Wind Variable Wind from East

Today
High -- | Low -- °F
--% Chance of Precip.
Yesterday
High -- | Low -- °F
Precip. -- in
5:53 AM 5:41 PM
Waning Crescent, 0% visible
Pressure 29.89 in
Visibility 6.2 miles
Clouds Few 1200 ft
Dew Point 72 °F
Humidity 83%
Rainfall 0.00 in
Snow Depth Not available.
UV 14 out of 12
Pollen Not available.
Air Quality Not available.
Flu Activity Not available.
METAR TTCP 231700Z 09014KT 9999 FEW012CB 25/22 Q1012 NOSIG

More Conditions Fewer Conditions

Pressure 29.89 in
Visibility 6.2 miles
Clouds Few 1200 ft
Dew Point 72 °F
Humidity 83%
Rainfall 0.00 in
Snow Depth Not available.
UV 14 out of 12
Pollen Not available.
Air Quality Not available.
Flu Activity Not available.
METAR TTCP 231700Z 09014KT 9999 FEW012CB 25/22 Q1012 NOSIG

More Conditions Fewer Conditions

10-Day Weather Forecast

Almanac

Astronomy

Oct. 23, 2014 Rise Set
Actual Time 5:53 AM AST 5:41 PM AST
Civil Twilight 5:31 AM AST 6:03 PM AST
Nautical Twilight 5:07 AM AST 6:28 PM AST
Astronomical Twilight 4:42 AM AST 6:52 PM AST
Moon 5:33 AM AST 5:39 PM AST
Length of Visible Light 12h 31m
Length of Day
11h 48m
Tomorrow will be 0m 34s shorter.
Waning Crescent, 0% of the Moon is Illuminated
Today
Waning Crescent
Oct 23
New
Oct 30
First Quarter
Nov 6
Full
Nov 14
Last Quarter

Today's Extremes

Country Highs Country Lows

Community

WunderPhotos

Upload Photos

1,764,327 photos uploaded!

WunderBlogs® & News

By Dr. Jeff Masters
Director of Meteorology, Weather Underground
By Kari Strenfel
Meteorologist, Weather Underground
By Christopher C. Burt
Weather Historian, Weather Underground
October 23, 2014
October 23, 2014
October 23, 2014

Nearby

Snow Depth

Not available.

Earthquake Activity

City Distance Mag. Time & Date
No recent earthquake activity has been reported nearby.
Minimum magnitude displayed is 2.5.

Coastal Water Temperatures

Place Temperature
No Stations Reporting

Nearby Weather Stations